createdAt,value
2018-02-01T00:00:55.125Z,1.60
2018-02-01T00:01:59.295Z,1.60
2018-02-01T00:03:03.475Z,1.60
2018-02-01T00:04:07.681Z,1.60
2018-02-01T00:05:12.084Z,1.60
2018-02-01T00:06:16.762Z,1.60
2018-02-01T00:07:21.708Z,1.60
2018-02-01T00:08:26.663Z,1.60
2018-02-01T00:09:30.835Z,1.60
2018-02-01T00:10:36.173Z,1.60
2018-02-01T00:11:41.803Z,1.60
2018-02-01T00:12:46.897Z,1.60
2018-02-01T00:13:51.159Z,1.50
2018-02-01T00:14:56.133Z,1.60
2018-02-01T00:16:00.396Z,1.50
2018-02-01T00:17:05.389Z,1.50
2018-02-01T00:18:10.166Z,1.50
2018-02-01T00:19:14.534Z,1.50
2018-02-01T00:20:18.994Z,1.60
2018-02-01T00:21:23.242Z,1.60
2018-02-01T00:22:27.443Z,1.50
2018-02-01T00:23:31.627Z,1.60
2018-02-01T00:24:35.809Z,1.60
2018-02-01T00:25:40.347Z,1.60
2018-02-01T00:26:45.256Z,1.60
2018-02-01T00:27:50.299Z,1.60
2018-02-01T00:28:55.263Z,1.70
2018-02-01T00:29:59.482Z,1.60
2018-02-01T00:31:03.692Z,1.70
2018-02-01T00:32:08.144Z,1.70
2018-02-01T00:33:12.501Z,1.70
2018-02-01T00:34:16.781Z,1.70
2018-02-01T00:35:21.952Z,1.60
2018-02-01T00:36:27.035Z,1.60
2018-02-01T00:37:31.227Z,1.60
2018-02-01T00:38:35.411Z,1.60
2018-02-01T00:39:39.966Z,1.60
2018-02-01T00:40:44.925Z,1.60
2018-02-01T00:41:50.241Z,1.60
2018-02-01T00:42:54.449Z,1.50
2018-02-01T00:43:58.631Z,1.60
2018-02-01T00:45:02.842Z,1.60
2018-02-01T00:46:07.127Z,1.60
2018-02-01T00:47:11.397Z,1.60
2018-02-01T00:48:15.788Z,1.60
2018-02-01T00:49:20.951Z,1.50
2018-02-01T00:50:25.129Z,1.60
2018-02-01T00:51:29.309Z,1.50
2018-02-01T00:52:33.478Z,1.50
2018-02-01T00:53:37.652Z,1.50
2018-02-01T00:54:42.783Z,1.50
2018-02-01T00:55:47.381Z,1.50
2018-02-01T00:56:51.591Z,1.40
2018-02-01T00:57:55.801Z,1.40
2018-02-01T00:58:59.976Z,1.40
2018-02-01T01:00:05.123Z,1.40
2018-02-01T01:01:10.487Z,1.40
2018-02-01T01:02:14.790Z,1.40
2018-02-01T01:03:19.088Z,1.40
2018-02-01T01:04:24.029Z,1.50
2018-02-01T01:05:28.270Z,1.40
2018-02-01T01:06:32.516Z,1.40
2018-02-01T01:07:36.696Z,1.40
2018-02-01T01:08:41.468Z,1.40
2018-02-01T01:09:46.007Z,1.40
2018-02-01T01:10:50.361Z,1.30
2018-02-01T01:11:54.805Z,1.30
2018-02-01T01:12:59.781Z,1.30
2018-02-01T01:14:04.001Z,1.30
2018-02-01T01:15:08.226Z,1.30
2018-02-01T01:16:13.810Z,1.30
2018-02-01T01:17:18.789Z,1.30
2018-02-01T01:18:22.987Z,1.30
2018-02-01T01:19:27.181Z,1.30
2018-02-01T01:20:31.361Z,1.40
2018-02-01T01:21:36.352Z,1.30
2018-02-01T01:22:40.941Z,1.30
2018-02-01T01:23:45.234Z,1.30
2018-02-01T01:24:49.454Z,1.30
2018-02-01T01:25:53.642Z,1.40
2018-02-01T01:26:58.644Z,1.30
2018-02-01T01:28:02.819Z,1.30
2018-02-01T01:29:06.991Z,1.30
2018-02-01T01:30:12.277Z,1.30
2018-02-01T01:31:16.626Z,1.30
2018-02-01T01:32:21.284Z,1.30
2018-02-01T01:33:25.496Z,1.30
2018-02-01T01:34:29.730Z,1.30
2018-02-01T01:35:33.917Z,1.30
2018-02-01T01:36:38.189Z,1.30
2018-02-01T01:37:43.426Z,1.30
2018-02-01T01:38:48.525Z,1.30
2018-02-01T01:39:52.908Z,1.20
2018-02-01T01:40:57.120Z,1.30
2018-02-01T01:42:01.331Z,1.20
2018-02-01T01:43:05.542Z,1.30
2018-02-01T01:44:09.847Z,1.30
2018-02-01T01:45:14.713Z,1.30
2018-02-01T01:46:18.994Z,1.30
2018-02-01T01:47:23.251Z,1.30
2018-02-01T01:48:27.428Z,1.30
2018-02-01T01:49:31.622Z,1.30
2018-02-01T01:50:35.814Z,1.30
2018-02-01T01:51:41.064Z,1.40
2018-02-01T01:52:45.425Z,1.40
2018-02-01T01:53:49.693Z,1.40
2018-02-01T01:54:53.871Z,1.40
2018-02-01T01:55:58.058Z,1.40
2018-02-01T01:57:02.271Z,1.40
2018-02-01T01:58:06.487Z,1.40
2018-02-01T01:59:11.275Z,1.40
2018-02-01T02:00:15.771Z,1.40
2018-02-01T02:01:20.196Z,1.40
2018-02-01T02:02:24.500Z,1.40
2018-02-01T02:03:29.460Z,1.40
2018-02-01T02:04:33.648Z,1.40
2018-02-01T02:05:37.819Z,1.40
2018-02-01T02:06:43.059Z,1.40
2018-02-01T02:07:47.356Z,1.40
2018-02-01T02:08:51.693Z,1.40
2018-02-01T02:09:56.696Z,1.40
2018-02-01T02:11:00.871Z,1.30
2018-02-01T02:12:05.071Z,1.40
2018-02-01T02:13:09.585Z,1.40
2018-02-01T02:14:14.526Z,1.50
2018-02-01T02:15:18.931Z,1.50
2018-02-01T02:16:23.219Z,1.50
2018-02-01T02:17:28.165Z,1.50
2018-02-01T02:18:32.382Z,1.50
2018-02-01T02:19:36.662Z,1.50
2018-02-01T02:20:41.145Z,1.50
2018-02-01T02:21:46.586Z,1.60
2018-02-01T02:22:50.966Z,1.50
2018-02-01T02:23:55.252Z,1.60
2018-02-01T02:25:00.221Z,1.60
2018-02-01T02:26:04.411Z,1.60
2018-02-01T02:27:08.609Z,1.60
2018-02-01T02:28:13.027Z,1.50
2018-02-01T02:29:17.359Z,1.60
2018-02-01T02:30:21.593Z,1.50
2018-02-01T02:31:25.788Z,1.50
2018-02-01T02:32:30.016Z,1.50
2018-02-01T02:33:34.196Z,1.50
2018-02-01T02:34:38.621Z,1.50
2018-02-01T02:35:43.130Z,1.50
2018-02-01T02:36:48.074Z,1.50
2018-02-01T02:37:52.260Z,1.50
2018-02-01T02:38:57.283Z,1.50
2018-02-01T02:40:02.291Z,1.50
2018-02-01T02:41:06.486Z,1.50
2018-02-01T02:42:10.863Z,1.50
2018-02-01T02:43:15.088Z,1.40
2018-02-01T02:44:19.296Z,1.50
2018-02-01T02:45:24.460Z,1.40
2018-02-01T02:46:28.662Z,1.50
2018-02-01T02:47:33.015Z,1.40
2018-02-01T02:48:37.998Z,1.40
2018-02-01T02:49:42.307Z,1.50
2018-02-01T02:50:46.690Z,1.40
2018-02-01T02:51:51.826Z,1.50
2018-02-01T02:52:55.998Z,1.50
2018-02-01T02:54:00.222Z,1.50
2018-02-01T02:55:05.177Z,1.60
2018-02-01T02:56:10.309Z,1.60
2018-02-01T02:57:14.772Z,1.60
2018-02-01T02:58:20.089Z,1.70
2018-02-01T02:59:24.259Z,1.60
2018-02-01T03:00:28.432Z,1.60
2018-02-01T03:01:32.750Z,1.70
2018-02-01T03:02:38.430Z,1.70
2018-02-01T03:03:44.082Z,1.70
2018-02-01T03:04:48.932Z,1.60
2018-02-01T03:05:53.116Z,1.60
2018-02-01T03:06:57.431Z,1.60
2018-02-01T03:08:01.634Z,1.60
2018-02-01T03:09:05.824Z,1.60
2018-02-01T03:10:12.017Z,1.60
2018-02-01T03:11:18.477Z,1.60
2018-02-01T03:12:22.718Z,1.70
2018-02-01T03:13:26.901Z,1.70
2018-02-01T03:14:31.102Z,1.70
2018-02-01T03:15:35.305Z,1.70
2018-02-01T03:16:39.954Z,1.70
2018-02-01T03:17:44.412Z,1.70
2018-02-01T03:18:49.889Z,1.70
2018-02-01T03:19:54.118Z,1.70
2018-02-01T03:20:58.396Z,1.70
2018-02-01T03:22:03.423Z,1.70
2018-02-01T03:23:08.383Z,1.70
2018-02-01T03:24:13.538Z,1.70
2018-02-01T03:25:17.731Z,1.70
2018-02-01T03:26:22.129Z,1.80
2018-02-01T03:27:26.343Z,1.80
2018-02-01T03:28:30.511Z,1.80
2018-02-01T03:29:34.812Z,1.80
2018-02-01T03:30:39.005Z,1.80
2018-02-01T03:31:44.112Z,1.80
2018-02-01T03:32:49.020Z,1.80
2018-02-01T03:33:53.321Z,1.80
2018-02-01T03:34:58.259Z,1.80
2018-02-01T03:36:03.208Z,1.80
2018-02-01T03:37:07.418Z,1.80
2018-02-01T03:38:12.231Z,1.80
2018-02-01T03:39:16.512Z,1.70
2018-02-01T03:40:20.730Z,1.70
2018-02-01T03:41:24.925Z,1.70
2018-02-01T03:42:29.103Z,1.70
2018-02-01T03:43:33.315Z,1.70
2018-02-01T03:44:37.477Z,1.60
2018-02-01T03:45:43.428Z,1.60
2018-02-01T03:46:48.366Z,1.60
2018-02-01T03:47:52.686Z,1.60
2018-02-01T03:48:56.903Z,1.60
2018-02-01T03:50:01.104Z,1.60
2018-02-01T03:51:06.043Z,1.60
2018-02-01T03:52:10.344Z,1.60
2018-02-01T03:53:15.287Z,1.60
2018-02-01T03:54:19.506Z,1.60
2018-02-01T03:55:23.793Z,1.60
2018-02-01T03:56:28.042Z,1.60
2018-02-01T03:57:32.234Z,1.70
2018-02-01T03:58:36.461Z,1.70
2018-02-01T03:59:42.063Z,1.70
2018-02-01T04:00:46.456Z,1.70
2018-02-01T04:01:51.385Z,1.70
2018-02-01T04:02:55.565Z,1.70
2018-02-01T04:03:59.760Z,1.70
2018-02-01T04:05:03.947Z,1.70
2018-02-01T04:06:08.154Z,1.70
2018-02-01T04:07:13.392Z,1.80
2018-02-01T04:08:17.909Z,1.70
2018-02-01T04:09:22.297Z,1.80
2018-02-01T04:10:26.490Z,1.80
2018-02-01T04:11:30.680Z,1.80
2018-02-01T04:12:34.966Z,1.80
2018-02-01T04:13:40.171Z,1.80
2018-02-01T04:14:44.919Z,1.80
2018-02-01T04:15:49.187Z,1.80
2018-02-01T04:16:53.362Z,1.80
2018-02-01T04:17:57.594Z,1.90
2018-02-01T04:19:01.790Z,1.90
2018-02-01T04:20:06.010Z,1.90
2018-02-01T04:21:11.117Z,1.90
2018-02-01T04:22:15.846Z,1.90
2018-02-01T04:23:20.206Z,1.80
2018-02-01T04:24:24.419Z,1.80
2018-02-01T04:25:28.583Z,1.80
2018-02-01T04:26:32.786Z,1.80
2018-02-01T04:27:36.980Z,1.80
2018-02-01T04:28:41.693Z,1.80
2018-02-01T04:29:46.295Z,1.80
2018-02-01T04:30:51.004Z,1.80
2018-02-01T04:31:55.184Z,1.80
2018-02-01T04:32:59.404Z,1.90
2018-02-01T04:34:03.628Z,1.90
2018-02-01T04:35:07.809Z,1.90
2018-02-01T04:36:12.139Z,1.90
2018-02-01T04:37:17.063Z,1.90
2018-02-01T04:38:22.060Z,1.90
2018-02-01T04:39:26.267Z,1.80
2018-02-01T04:40:30.464Z,1.80
2018-02-01T04:41:35.459Z,1.80
2018-02-01T04:42:39.937Z,1.80
2018-02-01T04:43:44.513Z,1.80
2018-02-01T04:44:48.814Z,1.80
2018-02-01T04:45:53.792Z,1.80
2018-02-01T04:46:57.987Z,1.80
2018-02-01T04:48:02.944Z,1.80
2018-02-01T04:49:07.182Z,1.80
2018-02-01T04:50:11.761Z,1.80
2018-02-01T04:51:16.409Z,1.80
2018-02-01T04:52:20.676Z,1.80
2018-02-01T04:53:25.667Z,1.80
2018-02-01T04:54:30.256Z,1.80
2018-02-01T04:55:34.439Z,1.80
2018-02-01T04:56:38.650Z,1.80
2018-02-01T04:57:43.154Z,1.70
2018-02-01T04:58:47.509Z,1.70
2018-02-01T04:59:52.133Z,1.70
2018-02-01T05:00:56.350Z,1.70
2018-02-01T05:02:00.608Z,1.70
2018-02-01T05:03:05.584Z,1.70
2018-02-01T05:04:10.401Z,1.70
2018-02-01T05:05:14.873Z,1.70
2018-02-01T05:06:20.260Z,1.70
2018-02-01T05:07:24.530Z,1.70
2018-02-01T05:08:29.533Z,1.70
2018-02-01T05:09:33.738Z,1.70
2018-02-01T05:10:37.970Z,1.70
2018-02-01T05:11:42.327Z,1.70
2018-02-01T05:12:46.684Z,1.60
2018-02-01T05:13:50.914Z,1.60
2018-02-01T05:14:55.896Z,1.60
2018-02-01T05:16:00.115Z,1.60
2018-02-01T05:17:04.315Z,1.60
2018-02-01T05:18:08.954Z,1.60
2018-02-01T05:19:13.994Z,1.60
2018-02-01T05:20:19.048Z,1.60
2018-02-01T05:21:23.219Z,1.50
2018-02-01T05:22:27.438Z,1.60
2018-02-01T05:23:32.022Z,1.60
2018-02-01T05:24:36.238Z,1.60
2018-02-01T05:25:40.748Z,1.60
2018-02-01T05:26:45.289Z,1.50
2018-02-01T05:27:49.629Z,1.50
2018-02-01T05:28:54.189Z,1.50
2018-02-01T05:29:59.177Z,1.50
2018-02-01T05:31:03.360Z,1.50
2018-02-01T05:32:07.593Z,1.50
2018-02-01T05:33:12.261Z,1.50
2018-02-01T05:34:17.607Z,1.50
2018-02-01T05:35:22.179Z,1.50
2018-02-01T05:36:26.388Z,1.50
2018-02-01T05:37:30.588Z,1.50
2018-02-01T05:38:34.804Z,1.50
2018-02-01T05:39:39.675Z,1.50
2018-02-01T05:40:46.006Z,1.50
2018-02-01T05:41:50.356Z,1.50
2018-02-01T05:42:54.575Z,1.50
2018-02-01T05:43:58.753Z,1.50
2018-02-01T05:45:03.803Z,1.50
2018-02-01T05:46:07.970Z,1.40
2018-02-01T05:47:12.964Z,1.50
2018-02-01T05:48:17.666Z,1.40
2018-02-01T05:49:22.058Z,1.40
2018-02-01T05:50:27.417Z,1.40
2018-02-01T05:51:31.630Z,1.40
2018-02-01T05:52:35.837Z,1.40
2018-02-01T05:53:40.989Z,1.50
2018-02-01T05:54:46.388Z,1.50
2018-02-01T05:55:51.478Z,1.50
2018-02-01T05:56:55.734Z,1.50
2018-02-01T05:58:00.719Z,1.60
2018-02-01T05:59:04.906Z,1.60
2018-02-01T06:00:09.155Z,1.60
2018-02-01T06:01:13.561Z,1.60
2018-02-01T06:02:18.348Z,1.60
2018-02-01T06:03:22.541Z,1.60
2018-02-01T06:04:27.497Z,1.60
2018-02-01T06:05:31.700Z,1.60
2018-02-01T06:06:36.000Z,1.60
2018-02-01T06:07:42.298Z,1.50
2018-02-01T06:08:47.030Z,1.50
2018-02-01T06:09:51.688Z,1.50
2018-02-01T06:10:56.637Z,1.60
2018-02-01T06:12:00.835Z,1.60
2018-02-01T06:13:05.823Z,1.60
2018-02-01T06:14:10.231Z,1.60
2018-02-01T06:15:14.676Z,1.60
2018-02-01T06:16:20.273Z,1.50
2018-02-01T06:17:24.491Z,1.50
2018-02-01T06:18:28.736Z,1.60
2018-02-01T06:19:32.917Z,1.50
2018-02-01T06:20:37.155Z,1.50
2018-02-01T06:21:43.028Z,1.50
2018-02-01T06:22:48.021Z,1.50
2018-02-01T06:23:52.431Z,1.50
2018-02-01T06:24:56.613Z,1.50
2018-02-01T06:26:00.860Z,1.50
2018-02-01T06:27:05.028Z,1.40
2018-02-01T06:28:09.371Z,1.50
2018-02-01T06:29:14.461Z,1.50
2018-02-01T06:30:19.855Z,1.50
2018-02-01T06:31:24.091Z,1.50
2018-02-01T06:32:29.104Z,1.50
2018-02-01T06:33:33.299Z,1.50
2018-02-01T06:34:37.553Z,1.50
2018-02-01T06:35:42.648Z,1.50
2018-02-01T06:36:47.884Z,1.50
2018-02-01T06:37:52.124Z,1.50
2018-02-01T06:38:57.075Z,1.40
2018-02-01T06:40:01.291Z,1.40
2018-02-01T06:41:05.493Z,1.40
2018-02-01T06:42:09.748Z,1.40
2018-02-01T06:43:15.574Z,1.40
2018-02-01T06:44:21.346Z,1.40
2018-02-01T06:45:25.520Z,1.40
2018-02-01T06:46:29.760Z,1.40
2018-02-01T06:47:33.969Z,1.40
2018-02-01T06:48:38.269Z,1.40
2018-02-01T06:49:42.749Z,1.40
2018-02-01T06:50:47.136Z,1.40
2018-02-01T06:51:51.433Z,1.40
2018-02-01T06:52:55.716Z,1.40
2018-02-01T06:53:59.958Z,1.40
2018-02-01T06:55:04.208Z,1.40
2018-02-01T06:56:09.821Z,1.30
2018-02-01T06:57:14.393Z,1.30
2018-02-01T06:58:19.061Z,1.30
2018-02-01T06:59:23.264Z,1.30
2018-02-01T07:00:27.480Z,1.30
2018-02-01T07:01:31.668Z,1.30
2018-02-01T07:02:35.864Z,1.30
2018-02-01T07:03:40.290Z,1.30
2018-02-01T07:04:45.587Z,1.40
2018-02-01T07:05:50.606Z,1.40
2018-02-01T07:06:54.776Z,1.30
2018-02-01T07:07:58.957Z,1.30
2018-02-01T07:09:03.145Z,1.30
2018-02-01T07:10:08.125Z,1.40
2018-02-01T07:11:12.439Z,1.30
2018-02-01T07:12:18.207Z,1.40
2018-02-01T07:13:23.915Z,1.40
2018-02-01T07:14:28.097Z,1.40
2018-02-01T07:15:33.472Z,1.40
2018-02-01T07:16:37.691Z,1.40
2018-02-01T07:17:42.031Z,1.50
2018-02-01T07:18:46.306Z,1.50
2018-02-01T07:19:50.527Z,1.50
2018-02-01T07:20:54.747Z,1.50
2018-02-01T07:21:58.972Z,1.50
2018-02-01T07:23:03.180Z,1.50
2018-02-01T07:24:07.379Z,1.60
2018-02-01T07:25:11.858Z,1.60
2018-02-01T07:26:16.199Z,1.60
2018-02-01T07:27:20.528Z,1.60
2018-02-01T07:28:24.735Z,1.60
2018-02-01T07:29:28.940Z,1.60
2018-02-01T07:30:33.135Z,1.60
2018-02-01T07:31:37.380Z,1.60
2018-02-01T07:32:42.353Z,1.60
2018-02-01T07:33:46.610Z,1.60
2018-02-01T07:34:50.848Z,1.60
2018-02-01T07:35:55.826Z,1.70
2018-02-01T07:37:00.084Z,1.60
2018-02-01T07:38:04.277Z,1.60
2018-02-01T07:39:08.476Z,1.70
2018-02-01T07:40:13.228Z,1.70
2018-02-01T07:41:17.448Z,1.70
2018-02-01T07:42:22.411Z,1.60
2018-02-01T07:43:26.599Z,1.70
2018-02-01T07:44:31.583Z,1.60
2018-02-01T07:45:36.076Z,1.60
2018-02-01T07:46:41.607Z,1.60
2018-02-01T07:47:46.708Z,1.70
2018-02-01T07:48:50.924Z,1.60
2018-02-01T07:49:55.911Z,1.60
2018-02-01T07:51:00.076Z,1.60
2018-02-01T07:52:04.271Z,1.60
2018-02-01T07:53:09.614Z,1.60
2018-02-01T07:54:14.435Z,1.60
2018-02-01T07:55:19.451Z,1.70
2018-02-01T07:56:23.652Z,1.70
2018-02-01T07:57:27.851Z,1.70
2018-02-01T07:58:32.052Z,1.70
2018-02-01T07:59:36.224Z,1.70
2018-02-01T08:00:41.823Z,1.70
2018-02-01T08:01:46.547Z,1.70
2018-02-01T08:02:51.574Z,1.70
2018-02-01T08:03:55.837Z,1.70
2018-02-01T08:05:00.052Z,1.70
2018-02-01T08:06:04.288Z,1.80
2018-02-01T08:07:08.548Z,1.80
2018-02-01T08:08:13.258Z,1.80
2018-02-01T08:09:17.544Z,1.80
2018-02-01T08:10:21.921Z,1.80
2018-02-01T08:11:26.115Z,1.80
2018-02-01T08:12:30.321Z,1.80
2018-02-01T08:13:35.279Z,1.80
2018-02-01T08:14:39.726Z,1.80
2018-02-01T08:15:44.140Z,1.80
2018-02-01T08:16:48.545Z,1.80
2018-02-01T08:17:52.756Z,1.80
2018-02-01T08:18:56.923Z,1.80
2018-02-01T08:20:01.880Z,1.80
2018-02-01T08:21:06.068Z,1.80
2018-02-01T08:22:11.107Z,1.90
2018-02-01T08:23:15.431Z,1.80
2018-02-01T08:24:19.690Z,1.90
2018-02-01T08:25:23.916Z,1.90
2018-02-01T08:26:28.861Z,1.90
2018-02-01T08:27:33.055Z,1.90
2018-02-01T08:28:38.044Z,1.90
2018-02-01T08:29:43.208Z,1.90
2018-02-01T08:30:48.013Z,1.90
2018-02-01T08:31:52.276Z,1.90
2018-02-01T08:32:56.448Z,1.90
2018-02-01T08:34:00.660Z,1.90
2018-02-01T08:35:04.964Z,1.90
2018-02-01T08:36:11.572Z,1.90
2018-02-01T08:37:15.904Z,1.90
2018-02-01T08:38:20.191Z,1.90
2018-02-01T08:39:25.152Z,2.00
2018-02-01T08:40:29.385Z,2.00
2018-02-01T08:41:33.642Z,2.00
2018-02-01T08:42:37.817Z,2.00
2018-02-01T08:43:42.487Z,2.00
2018-02-01T08:44:47.603Z,2.10
2018-02-01T08:45:51.895Z,2.00
2018-02-01T08:46:56.068Z,2.10
2018-02-01T08:48:00.237Z,2.10
2018-02-01T08:49:04.494Z,2.10
2018-02-01T08:50:08.759Z,2.10
2018-02-01T08:51:13.091Z,2.20
2018-02-01T08:52:17.481Z,2.20
2018-02-01T08:53:22.421Z,2.30
2018-02-01T08:54:26.662Z,2.30
2018-02-01T08:55:30.895Z,2.30
2018-02-01T08:56:35.079Z,2.30
2018-02-01T08:57:39.314Z,2.30
2018-02-01T08:58:43.572Z,2.40
2018-02-01T08:59:48.594Z,2.50
2018-02-01T09:00:53.631Z,2.50
2018-02-01T09:01:58.564Z,2.50
2018-02-01T09:03:03.493Z,2.50
2018-02-01T09:04:08.431Z,2.50
2018-02-01T09:05:13.525Z,2.50
2018-02-01T09:06:17.776Z,2.50
2018-02-01T09:07:21.959Z,2.50
2018-02-01T09:08:26.163Z,2.50
2018-02-01T09:09:31.119Z,2.60
2018-02-01T09:10:35.310Z,2.60
2018-02-01T09:11:40.441Z,2.60
2018-02-01T09:12:44.728Z,2.50
2018-02-01T09:13:48.986Z,2.60
2018-02-01T09:14:54.124Z,2.50
2018-02-01T09:15:58.345Z,2.50
2018-02-01T09:17:02.559Z,2.50
2018-02-01T09:18:06.754Z,2.50
2018-02-01T09:19:11.147Z,2.40
2018-02-01T09:20:16.045Z,2.40
2018-02-01T09:21:20.274Z,2.40
2018-02-01T09:22:25.239Z,2.40
2018-02-01T09:23:29.456Z,2.40
2018-02-01T09:24:33.691Z,2.40
2018-02-01T09:25:37.861Z,2.50
2018-02-01T09:26:42.261Z,2.50
2018-02-01T09:27:46.756Z,2.50
2018-02-01T09:28:51.907Z,2.50
2018-02-01T09:29:56.858Z,2.60
2018-02-01T09:31:01.076Z,2.60
2018-02-01T09:32:05.289Z,2.50
2018-02-01T09:33:09.518Z,2.60
2018-02-01T09:34:13.977Z,2.60
2018-02-01T09:35:19.160Z,2.60
2018-02-01T09:36:23.699Z,2.60
2018-02-01T09:37:27.896Z,2.70
2018-02-01T09:38:32.109Z,2.70
2018-02-01T09:39:36.312Z,2.70
2018-02-01T09:40:41.204Z,2.70
2018-02-01T09:41:45.531Z,2.80
2018-02-01T09:42:49.848Z,2.80
2018-02-01T09:43:54.025Z,2.90
2018-02-01T09:44:58.992Z,3.00
2018-02-01T09:46:03.297Z,3.00
2018-02-01T09:47:07.520Z,3.00
2018-02-01T09:48:12.119Z,3.10
2018-02-01T09:49:16.471Z,3.00
2018-02-01T09:50:21.596Z,3.00
2018-02-01T09:51:25.791Z,2.90
2018-02-01T09:52:29.963Z,3.00
2018-02-01T09:53:34.158Z,2.90
2018-02-01T09:54:39.042Z,2.90
2018-02-01T09:55:44.397Z,2.90
2018-02-01T09:56:48.633Z,2.90
2018-02-01T09:57:52.847Z,2.90
2018-02-01T09:58:57.015Z,2.90
2018-02-01T10:00:01.208Z,2.90
2018-02-01T10:01:05.456Z,2.80
2018-02-01T10:02:10.249Z,2.80
2018-02-01T10:03:14.505Z,2.80
2018-02-01T10:04:18.762Z,2.80
2018-02-01T10:05:23.077Z,2.80
2018-02-01T10:06:28.211Z,2.80
2018-02-01T10:07:32.485Z,2.70
2018-02-01T10:08:36.674Z,2.70
2018-02-01T10:09:42.378Z,2.60
2018-02-01T10:10:48.475Z,2.60
2018-02-01T10:11:52.723Z,2.60
2018-02-01T10:12:56.944Z,2.60
2018-02-01T10:14:01.919Z,2.50
2018-02-01T10:15:06.088Z,2.50
2018-02-01T10:16:10.693Z,2.40
2018-02-01T10:17:15.810Z,2.40
2018-02-01T10:18:20.969Z,2.40
2018-02-01T10:19:25.172Z,2.40
2018-02-01T10:20:30.123Z,2.40
2018-02-01T10:21:34.322Z,2.40
2018-02-01T10:22:38.676Z,2.40
2018-02-01T10:23:43.024Z,2.40
2018-02-01T10:24:47.482Z,2.40
2018-02-01T10:25:51.692Z,2.40
2018-02-01T10:26:55.880Z,2.40
2018-02-01T10:28:00.930Z,2.40
2018-02-01T10:29:05.107Z,2.40
2018-02-01T10:30:09.943Z,2.40
2018-02-01T10:31:14.340Z,2.40
2018-02-01T10:32:18.885Z,2.40
2018-02-01T10:33:23.193Z,2.50
2018-02-01T10:34:27.428Z,2.40
2018-02-01T10:35:31.642Z,2.40
2018-02-01T10:36:35.872Z,2.50
2018-02-01T10:37:40.192Z,2.50
2018-02-01T10:38:45.008Z,2.40
2018-02-01T10:39:49.610Z,2.50
2018-02-01T10:40:53.803Z,2.50
2018-02-01T10:41:57.981Z,2.50
2018-02-01T10:43:02.183Z,2.50
2018-02-01T10:44:06.379Z,2.50
2018-02-01T10:45:11.429Z,2.60
2018-02-01T10:46:16.567Z,2.60
2018-02-01T10:47:21.544Z,2.60
2018-02-01T10:48:25.767Z,2.60
2018-02-01T10:49:29.973Z,2.50
2018-02-01T10:50:34.582Z,2.50
2018-02-01T10:51:38.785Z,2.60
2018-02-01T10:52:43.344Z,2.60
2018-02-01T10:53:47.770Z,2.50
2018-02-01T10:54:52.096Z,2.60
2018-02-01T10:55:56.311Z,2.60
2018-02-01T10:57:01.300Z,2.60
2018-02-01T10:58:05.523Z,2.60
2018-02-01T10:59:09.997Z,2.60
2018-02-01T11:00:14.399Z,2.70
2018-02-01T11:01:19.549Z,2.70
2018-02-01T11:02:23.723Z,2.60
2018-02-01T11:03:28.656Z,2.70
2018-02-01T11:04:33.611Z,2.70
2018-02-01T11:05:37.812Z,2.70
2018-02-01T11:06:42.024Z,2.80
2018-02-01T11:07:46.859Z,2.80
2018-02-01T11:08:51.731Z,2.80
2018-02-01T11:09:55.951Z,2.80
2018-02-01T11:11:00.137Z,2.80
2018-02-01T11:12:04.309Z,2.90
2018-02-01T11:13:08.493Z,2.90
2018-02-01T11:14:12.802Z,2.90
2018-02-01T11:15:18.018Z,2.90
2018-02-01T11:16:22.468Z,2.90
2018-02-01T11:17:27.455Z,2.90
2018-02-01T11:18:31.659Z,2.90
2018-02-01T11:19:35.904Z,3.00
2018-02-01T11:20:40.187Z,3.00
2018-02-01T11:21:44.653Z,3.00
2018-02-01T11:22:49.090Z,3.00
2018-02-01T11:23:53.269Z,3.10
2018-02-01T11:24:58.324Z,3.10
2018-02-01T11:26:02.559Z,3.10
2018-02-01T11:27:06.744Z,3.10
2018-02-01T11:28:11.015Z,3.10
2018-02-01T11:29:16.191Z,3.20
2018-02-01T11:30:20.414Z,3.20
2018-02-01T11:31:24.602Z,3.20
2018-02-01T11:32:29.539Z,3.20
2018-02-01T11:33:33.730Z,3.20
2018-02-01T11:34:38.689Z,3.20
2018-02-01T11:35:44.007Z,3.20
2018-02-01T11:36:49.256Z,3.20
2018-02-01T11:37:53.464Z,3.20
2018-02-01T11:38:57.641Z,3.30
2018-02-01T11:40:01.839Z,3.20
2018-02-01T11:41:06.069Z,3.20
2018-02-01T11:42:10.427Z,3.20
2018-02-01T11:43:14.839Z,3.20
2018-02-01T11:44:19.188Z,3.30
2018-02-01T11:45:23.387Z,3.20
2018-02-01T11:46:27.611Z,3.30
2018-02-01T11:47:31.814Z,3.30
2018-02-01T11:48:36.016Z,3.30
2018-02-01T11:49:41.070Z,3.30
2018-02-01T11:50:45.735Z,3.30
2018-02-01T11:51:49.953Z,3.30
2018-02-01T11:52:54.150Z,3.30
2018-02-01T11:53:58.352Z,3.30
2018-02-01T11:55:03.285Z,3.30
2018-02-01T11:56:07.508Z,3.30
2018-02-01T11:57:11.827Z,3.30
2018-02-01T11:58:16.124Z,3.40
2018-02-01T11:59:20.361Z,3.40
2018-02-01T12:00:24.571Z,3.50
2018-02-01T12:01:28.752Z,3.50
2018-02-01T12:02:32.956Z,3.50
2018-02-01T12:03:37.972Z,3.50
2018-02-01T12:04:43.512Z,3.50
2018-02-01T12:05:48.660Z,3.50
2018-02-01T12:06:53.672Z,3.50
2018-02-01T12:07:57.877Z,3.50
2018-02-01T12:09:02.106Z,3.50
2018-02-01T12:10:07.049Z,3.50
2018-02-01T12:11:12.167Z,3.50
2018-02-01T12:12:16.407Z,3.50
2018-02-01T12:13:20.680Z,3.50
2018-02-01T12:14:25.652Z,3.50
2018-02-01T12:15:29.881Z,3.50
2018-02-01T12:16:34.083Z,3.50
2018-02-01T12:17:38.269Z,3.50
2018-02-01T12:18:43.125Z,3.50
2018-02-01T12:19:47.406Z,3.40
2018-02-01T12:20:52.181Z,3.50
2018-02-01T12:21:56.385Z,3.50
2018-02-01T12:23:00.561Z,3.60
2018-02-01T12:24:04.808Z,3.60
2018-02-01T12:25:09.757Z,3.60
2018-02-01T12:26:14.719Z,3.70
2018-02-01T12:27:19.269Z,3.70
2018-02-01T12:28:24.247Z,3.80
2018-02-01T12:29:29.199Z,3.80
2018-02-01T12:30:33.405Z,3.80
2018-02-01T12:31:37.600Z,3.80
2018-02-01T12:32:42.560Z,3.90
2018-02-01T12:33:46.862Z,3.90
2018-02-01T12:34:51.883Z,3.90
2018-02-01T12:35:56.079Z,3.90
2018-02-01T12:37:01.039Z,3.90
2018-02-01T12:38:05.236Z,3.90
2018-02-01T12:39:10.564Z,3.90
2018-02-01T12:40:15.672Z,3.90
2018-02-01T12:41:21.059Z,3.80
2018-02-01T12:42:25.359Z,3.80
2018-02-01T12:43:29.525Z,3.80
2018-02-01T12:44:33.724Z,3.70
2018-02-01T12:45:37.927Z,3.70
2018-02-01T12:46:42.165Z,3.70
2018-02-01T12:47:46.466Z,3.70
2018-02-01T12:48:50.786Z,3.70
2018-02-01T12:49:54.986Z,3.60
2018-02-01T12:50:59.187Z,3.60
2018-02-01T12:52:03.411Z,3.60
2018-02-01T12:53:07.609Z,3.60
2018-02-01T12:54:11.853Z,3.50
2018-02-01T12:55:16.849Z,3.50
2018-02-01T12:56:21.060Z,3.50
2018-02-01T12:57:25.284Z,3.50
2018-02-01T12:58:29.492Z,3.50
2018-02-01T12:59:33.728Z,3.50
2018-02-01T13:00:38.886Z,3.50
2018-02-01T13:01:43.335Z,3.50
2018-02-01T13:02:48.983Z,3.50
2018-02-01T13:03:53.466Z,3.50
2018-02-01T13:04:57.686Z,3.40
2018-02-01T13:06:01.927Z,3.40
2018-02-01T13:07:06.127Z,3.40
2018-02-01T13:08:10.578Z,3.40
2018-02-01T13:09:14.888Z,3.40
2018-02-01T13:10:19.908Z,3.30
2018-02-01T13:11:24.076Z,3.30
2018-02-01T13:12:28.281Z,3.30
2018-02-01T13:13:32.506Z,3.30
2018-02-01T13:14:36.709Z,3.30
2018-02-01T13:15:42.906Z,3.30
2018-02-01T13:16:47.477Z,3.30
2018-02-01T13:17:51.919Z,3.40
2018-02-01T13:18:56.159Z,3.40
2018-02-01T13:20:01.156Z,3.50
2018-02-01T13:21:05.361Z,3.50
2018-02-01T13:22:09.860Z,3.50
2018-02-01T13:23:14.972Z,3.60
2018-02-01T13:24:20.024Z,3.60
2018-02-01T13:25:24.286Z,3.60
2018-02-01T13:26:28.495Z,3.60
2018-02-01T13:27:32.705Z,3.50
2018-02-01T13:28:36.898Z,3.50
2018-02-01T13:29:41.665Z,3.50
2018-02-01T13:30:46.276Z,3.50
2018-02-01T13:31:52.120Z,3.50
2018-02-01T13:32:56.300Z,3.50
2018-02-01T13:34:00.492Z,3.50
2018-02-01T13:35:04.749Z,3.50
2018-02-01T13:36:09.062Z,3.50
2018-02-01T13:37:13.937Z,3.50
2018-02-01T13:38:18.201Z,3.50
2018-02-01T13:39:23.158Z,3.50
2018-02-01T13:40:28.123Z,3.50
2018-02-01T13:41:32.370Z,3.50
2018-02-01T13:42:36.594Z,3.50
2018-02-01T13:43:41.838Z,3.50
2018-02-01T13:44:46.371Z,3.50
2018-02-01T13:45:50.625Z,3.50
2018-02-01T13:46:54.825Z,3.50
2018-02-01T13:47:59.194Z,3.40
2018-02-01T13:49:04.146Z,3.40
2018-02-01T13:50:08.319Z,3.40
2018-02-01T13:51:13.996Z,3.40
2018-02-01T13:52:18.227Z,3.40
2018-02-01T13:53:22.575Z,3.40
2018-02-01T13:54:26.780Z,3.40
2018-02-01T13:55:30.983Z,3.30
2018-02-01T13:56:35.186Z,3.30
2018-02-01T13:57:40.660Z,3.30
2018-02-01T13:58:45.765Z,3.30
2018-02-01T13:59:49.959Z,3.30
2018-02-01T14:00:54.139Z,3.20
2018-02-01T14:01:58.336Z,3.20
2018-02-01T14:03:03.307Z,3.30
2018-02-01T14:04:07.551Z,3.30
2018-02-01T14:05:11.779Z,3.30
2018-02-01T14:06:16.770Z,3.30
2018-02-01T14:07:20.979Z,3.20
2018-02-01T14:08:25.193Z,3.30
2018-02-01T14:09:29.587Z,3.30
2018-02-01T14:10:33.798Z,3.30
2018-02-01T14:11:37.991Z,3.30
2018-02-01T14:12:42.232Z,3.30
2018-02-01T14:13:46.465Z,3.30
2018-02-01T14:14:51.023Z,3.30
2018-02-01T14:15:55.224Z,3.30
2018-02-01T14:17:00.178Z,3.30
2018-02-01T14:18:04.387Z,3.30
2018-02-01T14:19:08.613Z,3.30